PWSweather.com
Personal Weather Stations
Station Observations
N3SME
Betz Creek, Wilmington Island, Savannah, GA 31410

Betz Creek, Wilmington IslandSavannah, GA 31410

Lat: 32.023021, Lon: -80.959452

Elevation: 15

Station Type: Ambient

Latest ConditionsUpdated 11:52:31 PM EDT Thursday, Aug 21, 2014
Currently Today's Max Today's Min Today's Average
Temperature 84.1°F28.9°C 97.4°F36.3°C 75.6°F24.2°C 85.8°F29.9°C
Dew Point 79.4°F26.3°C 80.4°F26.9°C 69.6°F20.9°C 73.1°F22.8°C
Winds 1.8 mph W2.9 kmh W 15.7 mph WNW25.3 kmh WNW - 2.0 mph 3.2 kmh
Wind Gusts 8.7 mph14.0 kmh 24.6 mph39.6 kmh - -
Humidity 86% 87% 44% 69%
Pressure 30.01 in1016.3 mb 30.04 in1017.3 mb 29.96 in1014.6 mb -
Hour Temp Dew Point Humidity Winds Wind Gusts Pressure Precip Precip Rate Daily Precip Total
11:52 PM 84.1°F28.9°C 79.4°F26.3°C 86% 1.8 mph W2.9 kmh W 8.7 mph14.0 kmh 30.01 in1016.3 mb 0.00 in0.0 mm 0.00 in/hr0.0 mm/hr 0.00 in0.0 mm
11:37 PM 84.3°F29.1°C 79.6°F26.4°C 86% 5.1 mph SW8.2 kmh SW 8.7 mph14.0 kmh 30.01 in1016.3 mb 0.00 in0.0 mm 0.00 in/hr0.0 mm/hr 0.00 in0.0 mm
11:22 PM 84.6°F29.2°C 79.9°F26.6°C 86% Calm Calm 10.5 mph16.9 kmh 30.01 in1016.3 mb 0.00 in0.0 mm 0.00 in/hr0.0 mm/hr 0.00 in0.0 mm
11:07 PM 84.8°F29.3°C 80.1°F26.7°C 86% 3.6 mph SW5.8 kmh SW 8.7 mph14.0 kmh 30.01 in1016.3 mb 0.00 in0.0 mm 0.00 in/hr0.0 mm/hr 0.00 in0.0 mm
10:52 PM 84.8°F29.3°C 80.1°F26.7°C 86% Calm Calm 5.1 mph8.2 kmh 30.01 in1016.3 mb 0.00 in0.0 mm 0.00 in/hr0.0 mm/hr 0.00 in0.0 mm
10:37 PM 84.6°F29.2°C 80.3°F26.8°C 87% Calm Calm 8.7 mph14.0 kmh 30.01 in1016.3 mb 0.00 in0.0 mm 0.00 in/hr0.0 mm/hr 0.00 in0.0 mm
10:22 PM 84.8°F29.3°C 80.1°F26.7°C 86% Calm Calm 5.1 mph8.2 kmh 30.01 in1016.3 mb 0.00 in0.0 mm 0.00 in/hr0.0 mm/hr 0.00 in0.0 mm
10:07 PM 85.2°F29.6°C 80.1°F26.7°C 85% Calm Calm 5.1 mph8.2 kmh 30.01 in1016.3 mb 0.00 in0.0 mm 0.00 in/hr0.0 mm/hr 0.00 in0.0 mm
09:52 PM 85.4°F29.7°C 79.9°F26.6°C 84% Calm Calm 5.1 mph8.2 kmh 30.01 in1016.3 mb 0.00 in0.0 mm 0.00 in/hr0.0 mm/hr 0.00 in0.0 mm
09:37 PM 85.9°F29.9°C 80.0°F26.7°C 83% Calm Calm 1.8 mph2.9 kmh 30.00 in1015.9 mb 0.00 in0.0 mm 0.00 in/hr0.0 mm/hr 0.00 in0.0 mm
09:22 PM 86.6°F30.3°C 80.4°F26.9°C 82% Calm Calm 3.6 mph5.8 kmh 29.99 in1015.6 mb 0.00 in0.0 mm 0.00 in/hr0.0 mm/hr 0.00 in0.0 mm
09:07 PM 86.6°F30.3°C 80.0°F26.7°C 81% Calm Calm 5.1 mph8.2 kmh 29.99 in1015.6 mb 0.00 in0.0 mm 0.00 in/hr0.0 mm/hr 0.00 in0.0 mm
08:52 PM 86.6°F30.3°C 79.6°F26.4°C 80% Calm Calm 5.1 mph8.2 kmh 29.98 in1015.2 mb 0.00 in0.0 mm 0.00 in/hr0.0 mm/hr 0.00 in0.0 mm
08:37 PM 87.2°F30.7°C 79.3°F26.3°C 78% Calm Calm 5.1 mph8.2 kmh 29.98 in1015.2 mb 0.00 in0.0 mm 0.00 in/hr0.0 mm/hr 0.00 in0.0 mm
08:22 PM 88.4°F31.3°C 78.8°F26.0°C 74% Calm Calm 6.9 mph11.1 kmh 29.98 in1015.2 mb 0.00 in0.0 mm 0.00 in/hr0.0 mm/hr 0.00 in0.0 mm
08:07 PM 89.3°F31.8°C 79.3°F26.3°C 73% Calm Calm 6.9 mph11.1 kmh 29.97 in1014.9 mb 0.00 in0.0 mm 0.00 in/hr0.0 mm/hr 0.00 in0.0 mm
07:52 PM 89.9°F32.2°C 78.4°F25.8°C 70% Calm Calm 10.5 mph16.9 kmh 29.97 in1014.9 mb 0.00 in0.0 mm 0.00 in/hr0.0 mm/hr 0.00 in0.0 mm
07:37 PM 91.7°F33.2°C 76.3°F24.6°C 62% Calm Calm 6.9 mph11.1 kmh 29.97 in1014.9 mb 0.00 in0.0 mm 0.00 in/hr0.0 mm/hr 0.00 in0.0 mm
07:22 PM 94.5°F34.7°C 75.6°F24.2°C 56% Calm Calm 3.6 mph5.8 kmh 29.96 in1014.6 mb 0.00 in0.0 mm 0.00 in/hr0.0 mm/hr 0.00 in0.0 mm
07:07 PM 94.0°F34.4°C 72.7°F22.6°C 52% 1.8 mph WNW2.9 kmh WNW 8.7 mph14.0 kmh 29.96 in1014.6 mb 0.00 in0.0 mm 0.00 in/hr0.0 mm/hr 0.00 in0.0 mm
06:52 PM 94.5°F34.7°C 73.2°F22.9°C 52% Calm Calm 6.9 mph11.1 kmh 29.96 in1014.6 mb 0.00 in0.0 mm 0.00 in/hr0.0 mm/hr 0.00 in0.0 mm
06:37 PM 95.3°F35.2°C 72.6°F22.6°C 50% 1.8 mph NW2.9 kmh NW 8.7 mph14.0 kmh 29.96 in1014.6 mb 0.00 in0.0 mm 0.00 in/hr0.0 mm/hr 0.00 in0.0 mm
06:22 PM 95.4°F35.2°C 73.4°F23.0°C 51% Calm Calm 6.9 mph11.1 kmh 29.96 in1014.6 mb 0.00 in0.0 mm 0.00 in/hr0.0 mm/hr 0.00 in0.0 mm
06:07 PM 95.8°F35.4°C 71.7°F22.1°C 48% Calm Calm 10.5 mph16.9 kmh 29.96 in1014.6 mb 0.00 in0.0 mm 0.00 in/hr0.0 mm/hr 0.00 in0.0 mm
05:52 PM 96.2°F35.7°C 72.7°F22.6°C 49% Calm Calm 12.3 mph19.8 kmh 29.96 in1014.6 mb 0.00 in0.0 mm 0.00 in/hr0.0 mm/hr 0.00 in0.0 mm
05:37 PM 96.5°F35.8°C 71.0°F21.7°C 46% 3.6 mph WNW5.8 kmh WNW 8.7 mph14.0 kmh 29.96 in1014.6 mb 0.00 in0.0 mm 0.00 in/hr0.0 mm/hr 0.00 in0.0 mm
05:22 PM 96.5°F35.8°C 72.4°F22.4°C 48% Calm Calm 14.1 mph22.7 kmh 29.96 in1014.6 mb 0.00 in0.0 mm 0.00 in/hr0.0 mm/hr 0.00 in0.0 mm
05:07 PM 96.7°F35.9°C 71.9°F22.2°C 47% 1.8 mph NW2.9 kmh NW 15.7 mph25.3 kmh 29.96 in1014.6 mb 0.00 in0.0 mm 0.00 in/hr0.0 mm/hr 0.00 in0.0 mm
04:52 PM 96.9°F36.1°C 71.3°F21.8°C 46% 1.8 mph NNW2.9 kmh NNW 12.3 mph19.8 kmh 29.96 in1014.6 mb 0.00 in0.0 mm 0.00 in/hr0.0 mm/hr 0.00 in0.0 mm
04:37 PM 97.4°F36.3°C 70.3°F21.3°C 44% 3.6 mph NW5.8 kmh NW 14.1 mph22.7 kmh 29.96 in1014.6 mb 0.00 in0.0 mm 0.00 in/hr0.0 mm/hr 0.00 in0.0 mm
04:22 PM 97.2°F36.2°C 70.9°F21.6°C 45% 8.7 mph NW14.0 kmh NW 15.7 mph25.3 kmh 29.96 in1014.6 mb 0.00 in0.0 mm 0.00 in/hr0.0 mm/hr 0.00 in0.0 mm
04:07 PM 96.7°F35.9°C 70.4°F21.3°C 45% 1.8 mph WNW2.9 kmh WNW 22.8 mph36.7 kmh 29.96 in1014.6 mb 0.00 in0.0 mm 0.00 in/hr0.0 mm/hr 0.00 in0.0 mm
03:52 PM 97.1°F36.2°C 72.2°F22.3°C 47% 1.8 mph NW2.9 kmh NW 17.4 mph28.0 kmh 29.97 in1014.9 mb 0.00 in0.0 mm 0.00 in/hr0.0 mm/hr 0.00 in0.0 mm
03:37 PM 96.7°F35.9°C 72.6°F22.6°C 48% 1.8 mph NW2.9 kmh NW 19.2 mph30.9 kmh 29.97 in1014.9 mb 0.00 in0.0 mm 0.00 in/hr0.0 mm/hr 0.00 in0.0 mm
03:22 PM 96.9°F36.1°C 72.0°F22.2°C 47% 3.6 mph NNW5.8 kmh NNW 12.3 mph19.8 kmh 29.98 in1015.2 mb 0.00 in0.0 mm 0.00 in/hr0.0 mm/hr 0.00 in0.0 mm
03:07 PM 96.0°F35.6°C 70.5°F21.4°C 46% 1.8 mph NW2.9 kmh NW 24.6 mph39.6 kmh 29.98 in1015.2 mb 0.00 in0.0 mm 0.00 in/hr0.0 mm/hr 0.00 in0.0 mm
02:52 PM 95.8°F35.4°C 69.6°F20.9°C 45% 6.9 mph NW11.1 kmh NW 22.8 mph36.7 kmh 29.98 in1015.2 mb 0.00 in0.0 mm 0.00 in/hr0.0 mm/hr 0.00 in0.0 mm
02:37 PM 95.8°F35.4°C 71.1°F21.7°C 47% 3.6 mph NW5.8 kmh NW 21.0 mph33.8 kmh 29.98 in1015.2 mb 0.00 in0.0 mm 0.00 in/hr0.0 mm/hr 0.00 in0.0 mm
02:22 PM 96.2°F35.7°C 72.1°F22.3°C 48% 6.9 mph NW11.1 kmh NW 15.7 mph25.3 kmh 29.99 in1015.6 mb 0.00 in0.0 mm 0.00 in/hr0.0 mm/hr 0.00 in0.0 mm
02:07 PM 96.0°F35.6°C 73.9°F23.3°C 51% Calm Calm 17.4 mph28.0 kmh 30.00 in1015.9 mb 0.00 in0.0 mm 0.00 in/hr0.0 mm/hr 0.00 in0.0 mm
01:52 PM 95.4°F35.2°C 72.1°F22.3°C 49% 3.6 mph NW5.8 kmh NW 17.4 mph28.0 kmh 30.00 in1015.9 mb 0.00 in0.0 mm 0.00 in/hr0.0 mm/hr 0.00 in0.0 mm
01:38 PM 94.7°F34.8°C 72.7°F22.6°C 51% 10.5 mph WNW16.9 kmh WNW 19.2 mph30.9 kmh 30.01 in1016.3 mb 0.00 in0.0 mm 0.00 in/hr0.0 mm/hr 0.00 in0.0 mm
01:22 PM 94.4°F34.7°C 73.1°F22.8°C 52% 3.6 mph W5.8 kmh W 19.2 mph30.9 kmh 30.00 in1015.9 mb 0.00 in0.0 mm 0.00 in/hr0.0 mm/hr 0.00 in0.0 mm
01:07 PM 93.8°F34.3°C 73.8°F23.2°C 54% 6.9 mph W11.1 kmh W 21.0 mph33.8 kmh 30.01 in1016.3 mb 0.00 in0.0 mm 0.00 in/hr0.0 mm/hr 0.00 in0.0 mm
12:52 PM 93.3°F34.1°C 72.7°F22.6°C 53% 15.7 mph WNW25.3 kmh WNW 24.6 mph39.6 kmh 30.02 in1016.6 mb 0.00 in0.0 mm 0.00 in/hr0.0 mm/hr 0.00 in0.0 mm
12:37 PM 93.5°F34.2°C 74.6°F23.7°C 56% 3.6 mph NW5.8 kmh NW 15.7 mph25.3 kmh 30.01 in1016.3 mb 0.00 in0.0 mm 0.00 in/hr0.0 mm/hr 0.00 in0.0 mm
12:22 PM 92.4°F33.6°C 73.6°F23.1°C 56% 1.8 mph W2.9 kmh W 15.7 mph25.3 kmh 30.02 in1016.6 mb 0.00 in0.0 mm 0.00 in/hr0.0 mm/hr 0.00 in0.0 mm
12:07 PM 91.1°F32.8°C 74.1°F23.4°C 59% 5.1 mph WNW8.2 kmh WNW 15.7 mph25.3 kmh 30.03 in1016.9 mb 0.00 in0.0 mm 0.00 in/hr0.0 mm/hr 0.00 in0.0 mm
11:52 AM 90.4°F32.4°C 75.1°F23.9°C 62% 1.8 mph WSW2.9 kmh WSW 10.5 mph16.9 kmh 30.03 in1016.9 mb 0.00 in0.0 mm 0.00 in/hr0.0 mm/hr 0.00 in0.0 mm
11:37 AM 89.7°F32.1°C 74.4°F23.6°C 62% 3.6 mph SW5.8 kmh SW 14.1 mph22.7 kmh 30.03 in1016.9 mb 0.00 in0.0 mm 0.00 in/hr0.0 mm/hr 0.00 in0.0 mm
11:22 AM 88.2°F31.2°C 73.6°F23.1°C 63% 5.1 mph WNW8.2 kmh WNW 10.5 mph16.9 kmh 30.03 in1016.9 mb 0.00 in0.0 mm 0.00 in/hr0.0 mm/hr 0.00 in0.0 mm
11:07 AM 87.5°F30.8°C 73.9°F23.3°C 65% 1.8 mph NW2.9 kmh NW 10.5 mph16.9 kmh 30.04 in1017.3 mb 0.00 in0.0 mm 0.00 in/hr0.0 mm/hr 0.00 in0.0 mm
10:52 AM 87.0°F30.6°C 73.4°F23.0°C 65% 3.6 mph W5.8 kmh W 10.5 mph16.9 kmh 30.03 in1016.9 mb 0.00 in0.0 mm 0.00 in/hr0.0 mm/hr 0.00 in0.0 mm
10:37 AM 85.9°F29.9°C 73.8°F23.2°C 68% 3.6 mph W5.8 kmh W 10.5 mph16.9 kmh 30.03 in1016.9 mb 0.00 in0.0 mm 0.00 in/hr0.0 mm/hr 0.00 in0.0 mm
10:22 AM 84.6°F29.2°C 73.5°F23.1°C 70% 1.8 mph W2.9 kmh W 14.1 mph22.7 kmh 30.03 in1016.9 mb 0.00 in0.0 mm 0.00 in/hr0.0 mm/hr 0.00 in0.0 mm
10:07 AM 83.4°F28.6°C 72.7°F22.6°C 71% 5.1 mph WNW8.2 kmh WNW 14.1 mph22.7 kmh 30.03 in1016.9 mb 0.00 in0.0 mm 0.00 in/hr0.0 mm/hr 0.00 in0.0 mm
09:52 AM 81.9°F27.7°C 72.6°F22.6°C 74% 3.6 mph W5.8 kmh W 8.7 mph14.0 kmh 30.03 in1016.9 mb 0.00 in0.0 mm 0.00 in/hr0.0 mm/hr 0.00 in0.0 mm
09:37 AM 80.3°F26.8°C 71.5°F21.9°C 75% 3.6 mph NW5.8 kmh NW 14.1 mph22.7 kmh 30.04 in1017.3 mb 0.00 in0.0 mm 0.00 in/hr0.0 mm/hr 0.00 in0.0 mm
09:22 AM 79.8°F26.6°C 71.4°F21.9°C 76% 5.1 mph W8.2 kmh W 12.3 mph19.8 kmh 30.04 in1017.3 mb 0.00 in0.0 mm 0.00 in/hr0.0 mm/hr 0.00 in0.0 mm
09:07 AM 78.9°F26.1°C 70.9°F21.6°C 77% Calm Calm 15.7 mph25.3 kmh 30.04 in1017.3 mb 0.00 in0.0 mm 0.00 in/hr0.0 mm/hr 0.00 in0.0 mm
08:52 AM 78.0°F25.6°C 70.8°F21.6°C 79% 1.8 mph NW2.9 kmh NW 17.4 mph28.0 kmh 30.03 in1016.9 mb 0.00 in0.0 mm 0.00 in/hr0.0 mm/hr 0.00 in0.0 mm
08:37 AM 77.1°F25.1°C 71.1°F21.7°C 82% Calm Calm 10.5 mph16.9 kmh 30.03 in1016.9 mb 0.00 in0.0 mm 0.00 in/hr0.0 mm/hr 0.00 in0.0 mm
08:22 AM 76.9°F24.9°C 71.3°F21.8°C 83% Calm Calm 15.7 mph25.3 kmh 30.03 in1016.9 mb 0.00 in0.0 mm 0.00 in/hr0.0 mm/hr 0.00 in0.0 mm
08:07 AM 76.5°F24.7°C 70.9°F21.6°C 83% 1.8 mph NW2.9 kmh NW 21.0 mph33.8 kmh 30.03 in1016.9 mb 0.00 in0.0 mm 0.00 in/hr0.0 mm/hr 0.00 in0.0 mm
07:52 AM 76.4°F24.7°C 71.1°F21.7°C 84% 3.6 mph WNW5.8 kmh WNW 17.4 mph28.0 kmh 30.02 in1016.6 mb 0.00 in0.0 mm 0.00 in/hr0.0 mm/hr 0.00 in0.0 mm
07:37 AM 76.0°F24.4°C 70.7°F21.5°C 84% Calm Calm 10.5 mph16.9 kmh 30.01 in1016.3 mb 0.00 in0.0 mm 0.00 in/hr0.0 mm/hr 0.00 in0.0 mm
07:22 AM 75.8°F24.3°C 70.9°F21.6°C 85% Calm Calm 6.9 mph11.1 kmh 30.00 in1015.9 mb 0.00 in0.0 mm 0.00 in/hr0.0 mm/hr 0.00 in0.0 mm
07:07 AM 75.6°F24.2°C 70.4°F21.3°C 84% 1.8 mph W2.9 kmh W 10.5 mph16.9 kmh 29.99 in1015.6 mb 0.00 in0.0 mm 0.00 in/hr0.0 mm/hr 0.00 in0.0 mm
06:52 AM 75.6°F24.2°C 70.4°F21.3°C 84% 1.8 mph WSW2.9 kmh WSW 10.5 mph16.9 kmh 29.99 in1015.6 mb 0.00 in0.0 mm 0.00 in/hr0.0 mm/hr 0.00 in0.0 mm
06:37 AM 75.6°F24.2°C 70.0°F21.1°C 83% Calm Calm 6.9 mph11.1 kmh 29.98 in1015.2 mb 0.00 in0.0 mm 0.00 in/hr0.0 mm/hr 0.00 in0.0 mm
06:22 AM 75.6°F24.2°C 70.0°F21.1°C 83% Calm Calm 6.9 mph11.1 kmh 29.98 in1015.2 mb 0.00 in0.0 mm 0.00 in/hr0.0 mm/hr 0.00 in0.0 mm
06:07 AM 75.8°F24.3°C 69.8°F21.0°C 82% Calm Calm 3.6 mph5.8 kmh 29.97 in1014.9 mb 0.00 in0.0 mm 0.00 in/hr0.0 mm/hr 0.00 in0.0 mm
05:52 AM 76.0°F24.4°C 69.6°F20.9°C 81% 1.8 mph W2.9 kmh W 6.9 mph11.1 kmh 29.97 in1014.9 mb 0.00 in0.0 mm 0.00 in/hr0.0 mm/hr 0.00 in0.0 mm
05:37 AM 76.4°F24.7°C 70.0°F21.1°C 81% Calm Calm 6.9 mph11.1 kmh 29.96 in1014.6 mb 0.00 in0.0 mm 0.00 in/hr0.0 mm/hr 0.00 in0.0 mm
05:22 AM 76.5°F24.7°C 69.8°F21.0°C 80% Calm Calm 8.7 mph14.0 kmh 29.96 in1014.6 mb 0.00 in0.0 mm 0.00 in/hr0.0 mm/hr 0.00 in0.0 mm
05:07 AM 76.7°F24.8°C 69.6°F20.9°C 79% 1.8 mph W2.9 kmh W 12.3 mph19.8 kmh 29.97 in1014.9 mb 0.00 in0.0 mm 0.00 in/hr0.0 mm/hr 0.00 in0.0 mm
04:52 AM 76.7°F24.8°C 69.6°F20.9°C 79% 1.8 mph W2.9 kmh W 14.1 mph22.7 kmh 29.97 in1014.9 mb 0.00 in0.0 mm 0.00 in/hr0.0 mm/hr 0.00 in0.0 mm
04:37 AM 76.9°F24.9°C 70.1°F21.2°C 80% 5.1 mph W8.2 kmh W 8.7 mph14.0 kmh 29.97 in1014.9 mb 0.00 in0.0 mm 0.00 in/hr0.0 mm/hr 0.00 in0.0 mm
04:22 AM 77.1°F25.1°C 69.9°F21.1°C 79% 1.8 mph W2.9 kmh W 8.7 mph14.0 kmh 29.97 in1014.9 mb 0.00 in0.0 mm 0.00 in/hr0.0 mm/hr 0.00 in0.0 mm
04:07 AM 77.3°F25.2°C 70.1°F21.2°C 79% 1.8 mph WSW2.9 kmh WSW 8.7 mph14.0 kmh 29.97 in1014.9 mb 0.00 in0.0 mm 0.00 in/hr0.0 mm/hr 0.00 in0.0 mm
03:52 AM 77.6°F25.3°C 70.8°F21.6°C 80% 1.8 mph W2.9 kmh W 8.7 mph14.0 kmh 29.97 in1014.9 mb 0.00 in0.0 mm 0.00 in/hr0.0 mm/hr 0.00 in0.0 mm
03:37 AM 77.8°F25.4°C 70.6°F21.4°C 79% Calm Calm 8.7 mph14.0 kmh 29.97 in1014.9 mb 0.00 in0.0 mm 0.00 in/hr0.0 mm/hr 0.00 in0.0 mm
03:22 AM 78.2°F25.7°C 71.0°F21.7°C 79% 1.8 mph W2.9 kmh W 19.2 mph30.9 kmh 29.97 in1014.9 mb 0.00 in0.0 mm 0.00 in/hr0.0 mm/hr 0.00 in0.0 mm
03:07 AM 78.3°F25.7°C 71.1°F21.7°C 79% 5.1 mph WNW8.2 kmh WNW 10.5 mph16.9 kmh 29.98 in1015.2 mb 0.00 in0.0 mm 0.00 in/hr0.0 mm/hr 0.00 in0.0 mm
02:52 AM 78.5°F25.8°C 71.3°F21.8°C 79% 1.8 mph W2.9 kmh W 10.5 mph16.9 kmh 29.98 in1015.2 mb 0.00 in0.0 mm 0.00 in/hr0.0 mm/hr 0.00 in0.0 mm
02:37 AM 78.7°F25.9°C 71.1°F21.7°C 78% 1.8 mph W2.9 kmh W 6.9 mph11.1 kmh 29.98 in1015.2 mb 0.00 in0.0 mm 0.00 in/hr0.0 mm/hr 0.00 in0.0 mm
02:22 AM 78.7°F25.9°C 71.1°F21.7°C 78% Calm Calm 10.5 mph16.9 kmh 29.98 in1015.2 mb 0.00 in0.0 mm 0.00 in/hr0.0 mm/hr 0.00 in0.0 mm
02:07 AM 78.9°F26.1°C 70.9°F21.6°C 77% Calm Calm 3.6 mph5.8 kmh 29.98 in1015.2 mb 0.00 in0.0 mm 0.00 in/hr0.0 mm/hr 0.00 in0.0 mm
01:52 AM 79.2°F26.2°C 71.2°F21.8°C 77% 1.8 mph WNW2.9 kmh WNW 5.1 mph8.2 kmh 29.98 in1015.2 mb 0.00 in0.0 mm 0.00 in/hr0.0 mm/hr 0.00 in0.0 mm
01:37 AM 79.8°F26.6°C 71.4°F21.9°C 76% Calm Calm 6.9 mph11.1 kmh 29.98 in1015.2 mb 0.00 in0.0 mm 0.00 in/hr0.0 mm/hr 0.00 in0.0 mm
01:22 AM 80.1°F26.7°C 71.3°F21.8°C 75% Calm Calm 6.9 mph11.1 kmh 29.98 in1015.2 mb 0.00 in0.0 mm 0.00 in/hr0.0 mm/hr 0.00 in0.0 mm
01:07 AM 80.5°F26.9°C 71.2°F21.8°C 74% 1.8 mph WNW2.9 kmh WNW 6.9 mph11.1 kmh 29.99 in1015.6 mb 0.00 in0.0 mm 0.00 in/hr0.0 mm/hr 0.00 in0.0 mm
12:52 AM 80.9°F27.2°C 71.2°F21.8°C 73% Calm Calm 8.7 mph14.0 kmh 29.99 in1015.6 mb 0.00 in0.0 mm 0.00 in/hr0.0 mm/hr 0.00 in0.0 mm
12:37 AM 81.2°F27.3°C 70.6°F21.4°C 71% 1.8 mph WNW2.9 kmh WNW 10.5 mph16.9 kmh 29.99 in1015.6 mb 0.00 in0.0 mm 0.00 in/hr0.0 mm/hr 0.00 in0.0 mm
12:22 AM 81.9°F27.7°C 70.9°F21.6°C 70% Calm Calm 6.9 mph11.1 kmh 30.00 in1015.9 mb 0.00 in0.0 mm 0.00 in/hr0.0 mm/hr 0.00 in0.0 mm
12:07 AM 82.3°F27.9°C 70.8°F21.6°C 69% Calm Calm 10.5 mph16.9 kmh 30.00 in1015.9 mb 0.00 in0.0 mm 0.00 in/hr0.0 mm/hr 0.00 in0.0 mm